Time;durP1;ratioP1;P1;durP2;ratioP2;P2;SDS_P1;SDS_P2;PMS_P1;PMS_P2;Temp;Humidity;BMP_temperature;BMP_pressure;BME280_temperature;BME280_humidity;BME280_pressure;Samples;Min_cycle;Max_cycle;Signal;HPM_P1;HPM_P2
2023/02/10 00:00:38;;;;;;;7.73;3.63;;;;;;;-5.43;62.40;99501.16;6302875;28;20601;-35
2023/02/10 00:03:41;;;;;;;6.57;3.87;;;;;;;-5.69;62.64;99495.00;6302631;28;20309;-34
2023/02/10 00:06:43;;;;;;;6.20;3.10;;;;;;;-5.58;62.87;99502.94;6303697;28;20731;-35
2023/02/10 00:09:45;;;;;;;5.27;3.47;;;;;;;-5.56;62.67;99504.53;6327004;27;20231;-35
2023/02/10 00:12:47;;;;;;;6.03;3.50;;;;;;;-5.57;62.67;99509.81;6327895;28;20240;-35
2023/02/10 00:15:49;;;;;;;4.40;2.90;;;;;;;-5.67;63.10;99508.72;6323381;28;20707;-35
2023/02/10 00:18:51;;;;;;;4.77;3.00;;;;;;;-5.74;62.84;99492.69;6327922;28;20240;-35
2023/02/10 00:21:53;;;;;;;5.27;3.60;;;;;;;-5.64;62.75;99504.16;6323823;27;20944;-35
2023/02/10 00:24:55;;;;;;;4.10;2.93;;;;;;;-5.67;62.50;99506.09;6327594;28;20221;-34
2023/02/10 00:27:57;;;;;;;5.03;2.80;;;;;;;-5.80;63.08;99506.03;6328420;28;20628;-35
2023/02/10 00:31:04;;;;;;;4.73;2.43;;;;;;;-5.76;62.90;99508.34;6329288;28;20313;-35
2023/02/10 00:34:08;;;;;;;3.00;2.23;;;;;;;-5.80;63.08;99506.03;6329994;28;20224;-35
2023/02/10 00:37:10;;;;;;;3.90;2.47;;;;;;;-5.81;62.90;99505.22;6310872;28;20240;-35
2023/02/10 00:40:12;;;;;;;3.43;2.30;;;;;;;-5.77;62.93;99506.66;6329907;28;20713;-34
2023/02/10 00:43:14;;;;;;;3.70;2.00;;;;;;;-5.80;62.90;99508.63;6326541;28;20260;-34
2023/02/10 00:46:18;;;;;;;3.30;2.20;;;;;;;-5.92;63.25;99517.19;6324269;28;20228;-35
2023/02/10 00:49:20;;;;;;;4.17;2.57;;;;;;;-5.93;62.92;99511.16;6328063;28;20236;-35
2023/02/10 00:52:24;;;;;;;3.70;2.60;;;;;;;-6.01;63.47;99516.81;6330209;28;20233;-35
2023/02/10 00:55:26;;;;;;;4.17;2.70;;;;;;;-6.18;63.57;99491.03;6329716;28;20378;-35
2023/02/10 00:58:28;;;;;;;4.27;2.87;;;;;;;-6.10;63.78;99524.31;6330261;28;20228;-35
2023/02/10 01:01:30;;;;;;;4.00;2.30;;;;;;;-6.19;63.14;99488.56;6326937;27;20747;-35
2023/02/10 01:04:34;;;;;;;3.93;2.70;;;;;;;-6.01;62.74;99528.94;6333583;27;20224;-35
2023/02/10 01:07:36;;;;;;;3.67;2.60;;;;;;;-6.07;63.56;99516.34;6333223;27;20607;-35
2023/02/10 01:10:38;;;;;;;5.10;2.90;;;;;;;-6.26;63.20;99488.06;6313238;28;20243;-35
2023/02/10 01:13:42;;;;;;;4.00;2.73;;;;;;;-5.99;63.22;99516.72;6329097;28;20741;-35
2023/02/10 01:16:44;;;;;;;4.83;2.30;;;;;;;-6.03;63.59;99510.88;6333095;27;20239;-35
2023/02/10 01:19:50;;;;;;;5.20;2.60;;;;;;;-6.02;63.30;99511.72;6328708;27;20428;-35
2023/02/10 01:22:53;;;;;;;3.23;2.13;;;;;;;-6.30;63.64;99464.09;6332428;27;20591;-34
2023/02/10 01:25:55;;;;;;;3.50;2.50;;;;;;;-5.99;63.60;99507.19;6335767;27;20225;-35
2023/02/10 01:28:57;;;;;;;3.20;2.60;;;;;;;-5.99;63.32;99501.16;6330470;28;20221;-35
2023/02/10 01:31:59;;;;;;;3.30;2.13;;;;;;;-6.02;63.66;99503.94;6333217;27;20725;-35
2023/02/10 01:35:02;;;;;;;4.33;2.67;;;;;;;-5.97;63.60;99504.47;6313635;27;20718;-35
2023/02/10 01:38:05;;;;;;;4.47;2.97;;;;;;;-5.94;63.43;99500.88;6329860;28;20233;-34
2023/02/10 01:41:08;;;;;;;3.67;2.80;;;;;;;-5.94;62.95;99496.53;6315011;28;20703;-35
2023/02/10 01:44:19;;;;;;;4.53;2.67;;;;;;;-5.92;63.18;99492.06;6328538;27;20846;-35
2023/02/10 01:47:22;;;;;;;4.90;3.13;;;;;;;-5.92;62.91;99491.22;6330319;27;20256;-35
2023/02/10 01:50:35;;;;;;;5.63;3.10;;;;;;;-5.99;63.23;99494.22;6315122;28;20604;-35
2023/02/10 01:53:38;;;;;;;3.53;2.53;;;;;;;-6.06;63.27;99495.53;6329897;27;20241;-35
2023/02/10 01:56:41;;;;;;;7.93;2.93;;;;;;;-6.09;63.78;99492.25;6313373;27;20714;-35
2023/02/10 01:59:44;;;;;;;4.27;2.77;;;;;;;-6.00;63.51;99481.34;6329675;27;20315;-35
2023/02/10 02:02:47;;;;;;;4.77;2.97;;;;;;;-6.00;63.51;99481.34;6329473;28;20359;-36
2023/02/10 02:05:49;;;;;;;4.13;2.50;;;;;;;-6.02;63.63;99476.22;6329561;28;20370;-35
2023/02/10 02:08:55;;;;;;;3.10;2.57;;;;;;;-6.10;63.62;99469.84;6331051;28;20304;-33
2023/02/10 02:12:36;;;;;;;5.03;2.43;;;;;;;-6.07;63.82;99482.63;6313514;28;20224;-34
2023/02/10 02:15:51;;;;;;;3.53;2.30;;;;;;;-6.11;63.79;99481.13;6307050;28;20244;-34
2023/02/10 02:19:13;;;;;;;3.37;2.10;;;;;;;-6.11;64.30;99475.94;6327748;27;20266;-34
2023/02/10 02:22:34;;;;;;;3.37;2.10;;;;;;;-6.18;64.55;99472.91;6311819;28;20309;-34
2023/02/10 02:25:47;;;;;;;4.67;2.67;;;;;;;-6.13;64.59;99470.03;6329813;27;20244;-35
2023/02/10 02:29:47;;;;;;;4.87;2.37;;;;;;;-6.08;64.67;99468.00;6331386;27;20691;-34
2023/02/10 02:33:13;;;;;;;4.80;2.90;;;;;;;-6.11;64.72;99465.56;6249020;28;20267;-34
2023/02/10 02:36:25;;;;;;;4.00;2.57;;;;;;;-6.16;65.12;99465.84;6248936;28;20235;-34
2023/02/10 02:39:28;;;;;;;3.17;2.20;;;;;;;-6.18;65.33;99478.06;6333906;27;20225;-35
2023/02/10 02:42:32;;;;;;;3.87;2.57;;;;;;;-6.12;64.96;99475.09;6313425;28;20229;-34
2023/02/10 02:45:52;;;;;;;4.27;2.53;;;;;;;-6.13;65.25;99481.22;6331802;27;20658;-35
2023/02/10 02:49:04;;;;;;;3.70;2.43;;;;;;;-6.14;65.39;99471.78;6329982;27;20712;-35
2023/02/10 02:52:11;;;;;;;4.13;2.80;;;;;;;-6.10;65.35;99475.03;6328566;27;20640;-35
2023/02/10 02:55:34;;;;;;;4.77;2.90;;;;;;;-6.12;65.38;99479.47;6310477;28;20684;-35
2023/02/10 02:58:59;;;;;;;3.93;2.50;;;;;;;-6.13;65.78;99478.63;6306583;28;20233;-35
2023/02/10 03:02:12;;;;;;;3.57;2.50;;;;;;;-6.05;65.33;99475.59;6328134;27;20225;-35
2023/02/10 03:05:23;;;;;;;7.57;2.83;;;;;;;-6.28;65.54;99445.84;6311821;27;20229;-35
2023/02/10 03:08:27;;;;;;;4.43;2.60;;;;;;;-6.00;65.49;99486.53;6330838;27;20294;-35
2023/02/10 03:11:29;;;;;;;3.97;2.53;;;;;;;-6.29;65.61;99445.00;6326792;27;20353;-34
2023/02/10 03:14:31;;;;;;;4.07;2.60;;;;;;;-5.99;65.51;99494.22;6329249;28;20286;-35
2023/02/10 03:17:33;;;;;;;3.57;2.87;;;;;;;-5.86;64.98;99491.69;6321645;28;20632;-35
2023/02/10 03:20:35;;;;;;;3.73;2.50;;;;;;;-5.87;64.58;99494.34;6314102;28;20362;-35
2023/02/10 03:23:37;;;;;;;4.93;2.90;;;;;;;-5.91;64.94;99492.91;6331085;27;20573;-35
2023/02/10 03:26:39;;;;;;;4.13;2.67;;;;;;;-5.98;64.56;99495.88;6314378;28;20243;-35
2023/02/10 03:29:41;;;;;;;5.07;2.93;;;;;;;-5.95;64.73;99499.22;6331506;27;20749;-35
2023/02/10 03:32:46;;;;;;;4.43;2.53;;;;;;;-6.09;65.33;99493.09;6301949;27;20324;-35
2023/02/10 03:35:49;;;;;;;3.57;2.57;;;;;;;-6.01;65.01;99514.22;6324559;27;20763;-35
2023/02/10 03:38:55;;;;;;;3.40;2.47;;;;;;;-6.27;65.53;99476.03;6327721;27;20616;-35
2023/02/10 03:41:57;;;;;;;5.13;2.97;;;;;;;-6.06;65.54;99508.50;6304617;28;20227;-34
2023/02/10 03:44:59;;;;;;;5.47;2.73;;;;;;;-6.02;65.36;99512.53;6328708;27;20263;-35
2023/02/10 03:48:02;;;;;;;3.93;2.77;;;;;;;-6.00;65.77;99512.47;6328440;27;20239;-34
2023/02/10 03:51:06;;;;;;;4.40;2.50;;;;;;;-6.03;65.36;99510.03;6310677;28;20588;-35
2023/02/10 03:54:08;;;;;;;4.73;2.57;;;;;;;-6.15;65.66;99506.44;6328277;27;20237;-35
2023/02/10 03:57:11;;;;;;;6.20;3.00;;;;;;;-6.14;66.46;99513.28;6331113;27;20589;-34
2023/02/10 04:00:14;;;;;;;4.83;3.30;;;;;;;-6.07;66.37;99513.75;6329115;27;20220;-35
2023/02/10 04:03:17;;;;;;;5.73;3.20;;;;;;;-6.04;66.31;99518.75;6329733;27;20227;-34
2023/02/10 04:06:19;;;;;;;5.30;3.57;;;;;;;-6.02;66.25;99529.88;6329272;27;20217;-35
2023/02/10 04:09:22;;;;;;;4.57;3.20;;;;;;;-5.97;66.83;99525.25;6327766;28;20596;-35
2023/02/10 04:12:24;;;;;;;4.87;2.70;;;;;;;-5.87;66.37;99525.50;6326883;28;20220;-35
2023/02/10 04:15:26;;;;;;;4.57;3.10;;;;;;;-6.09;66.50;99494.84;6330038;27;20278;-34
2023/02/10 04:18:28;;;;;;;6.23;3.13;;;;;;;-5.91;66.51;99519.69;6331395;27;20216;-35
2023/02/10 04:21:30;;;;;;;4.20;2.83;;;;;;;-5.95;67.33;99509.59;6326344;28;20217;-35
2023/02/10 04:24:32;;;;;;;3.93;2.97;;;;;;;-5.90;68.09;99502.34;6329226;28;20239;-35
2023/02/10 04:27:34;;;;;;;5.57;3.83;;;;;;;-5.86;67.99;99475.25;6327182;28;20256;-35
2023/02/10 04:30:36;;;;;;;5.80;3.70;;;;;;;-5.54;67.65;99510.47;6336869;28;20230;-35
2023/02/10 04:33:38;;;;;;;4.17;3.37;;;;;;;-5.51;67.07;99504.25;6307378;28;20236;-35
2023/02/10 04:36:40;;;;;;;4.80;3.10;;;;;;;-5.53;66.93;99501.72;6327905;28;20596;-35
2023/02/10 04:39:42;;;;;;;5.07;3.10;;;;;;;-5.51;67.09;99510.28;6334324;27;20309;-35
2023/02/10 04:42:44;;;;;;;5.33;3.03;;;;;;;-5.55;67.38;99506.19;6318004;28;20220;-35
2023/02/10 04:45:46;;;;;;;5.60;3.13;;;;;;;-5.58;67.13;99483.00;6334672;27;20700;-35
2023/02/10 04:48:49;;;;;;;5.70;3.57;;;;;;;-5.32;67.75;99514.31;6334756;27;20228;-35
2023/02/10 04:51:51;;;;;;;4.33;3.40;;;;;;;-5.20;67.01;99510.94;6333580;27;20312;-35
2023/02/10 04:54:53;;;;;;;4.33;3.20;;;;;;;-5.13;67.08;99516.56;6334105;27;20699;-35
2023/02/10 04:57:55;;;;;;;4.07;3.20;;;;;;;-5.11;67.23;99509.53;6331264;27;20220;-36
2023/02/10 05:00:57;;;;;;;4.77;3.47;;;;;;;-5.00;66.72;99520.06;6332962;27;20240;-36
2023/02/10 05:03:59;;;;;;;8.00;3.30;;;;;;;-4.97;66.47;99523.31;6334287;27;20592;-35
2023/02/10 05:07:01;;;;;;;5.60;3.23;;;;;;;-4.93;66.21;99524.78;6333666;27;20232;-35
2023/02/10 05:10:04;;;;;;;6.40;3.47;;;;;;;-4.85;66.05;99521.69;6333091;27;20657;-35
2023/02/10 05:13:06;;;;;;;6.40;3.30;;;;;;;-4.76;66.10;99517.66;6335010;27;20231;-35
2023/02/10 05:16:10;;;;;;;7.83;3.03;;;;;;;-4.66;65.25;99521.34;6335122;27;20407;-35
2023/02/10 05:19:13;;;;;;;5.10;3.40;;;;;;;-4.61;64.80;99523.63;6317014;27;20714;-36
2023/02/10 05:22:15;;;;;;;5.63;3.47;;;;;;;-4.50;64.34;99529.78;6330915;28;20235;-34
2023/02/10 05:25:17;;;;;;;4.63;3.30;;;;;;;-4.42;64.14;99529.28;6331417;28;20290;-35
2023/02/10 05:28:19;;;;;;;5.63;3.33;;;;;;;-4.32;63.89;99532.94;6330831;28;20228;-35
2023/02/10 05:31:21;;;;;;;6.00;3.27;;;;;;;-4.26;63.58;99529.94;6330880;27;20229;-35
2023/02/10 05:34:25;;;;;;;6.17;3.60;;;;;;;-4.19;63.50;99538.16;6330570;27;20324;-35
2023/02/10 05:37:27;;;;;;;5.97;3.50;;;;;;;-4.05;63.08;99535.47;6333116;27;20262;-35
2023/02/10 05:40:30;;;;;;;5.13;3.37;;;;;;;-3.92;62.55;99538.91;6332623;27;20713;-35
2023/02/10 05:43:32;;;;;;;6.90;3.57;;;;;;;-4.09;62.58;99501.94;6332586;27;20270;-35
2023/02/10 05:46:34;;;;;;;6.27;4.17;;;;;;;-3.77;62.22;99533.59;6332489;27;20315;-35
2023/02/10 05:49:36;;;;;;;5.93;3.83;;;;;;;-3.74;62.17;99543.81;6330358;27;20580;-35
2023/02/10 05:52:38;;;;;;;7.10;3.70;;;;;;;-3.75;61.29;99527.31;6312772;28;20233;-35
2023/02/10 05:55:40;;;;;;;6.40;3.37;;;;;;;-3.42;61.00;99557.19;6313787;28;20716;-34
2023/02/10 05:58:42;;;;;;;7.80;4.33;;;;;;;-3.31;60.42;99557.28;6331415;27;20263;-35
2023/02/10 06:01:44;;;;;;;6.53;4.03;;;;;;;-3.24;60.33;99555.09;6332809;27;20236;-36
2023/02/10 06:04:46;;;;;;;6.80;3.97;;;;;;;-3.15;60.45;99564.88;6333944;27;20706;-36
2023/02/10 06:07:48;;;;;;;7.63;4.17;;;;;;;-3.18;60.47;99563.28;6334303;27;20605;-35
2023/02/10 06:10:49;;;;;;;5.63;3.77;;;;;;;-3.17;60.30;99571.94;6335516;27;20547;-35
2023/02/10 06:13:51;;;;;;;8.17;4.33;;;;;;;-3.28;60.74;99562.28;6333460;27;20232;-35
2023/02/10 06:16:53;;;;;;;10.40;5.03;;;;;;;-3.14;60.22;99583.00;6330065;28;20620;-36
2023/02/10 06:19:55;;;;;;;7.47;4.50;;;;;;;-3.06;60.25;99592.88;6329493;28;20258;-35
2023/02/10 06:22:57;;;;;;;6.27;4.10;;;;;;;-3.07;60.64;99583.38;6326459;28;20604;-35
2023/02/10 06:26:00;;;;;;;8.20;4.70;;;;;;;-2.98;60.51;99589.72;6320978;28;20578;-36
2023/02/10 06:29:02;;;;;;;9.73;5.03;;;;;;;-2.91;60.27;99593.56;6315927;27;20220;-35
2023/02/10 06:32:04;;;;;;;11.90;7.07;;;;;;;-2.56;59.21;99603.22;6328558;27;20241;-35
2023/02/10 06:35:06;;;;;;;13.40;6.43;;;;;;;-1.97;56.60;99604.09;6333558;27;20274;-35
2023/02/10 06:38:08;;;;;;;12.10;6.93;;;;;;;-1.77;56.43;99612.16;6329812;27;20289;-35
2023/02/10 06:41:10;;;;;;;12.83;8.13;;;;;;;-1.30;55.25;99606.78;6319439;28;20309;-36
2023/02/10 06:44:12;;;;;;;12.33;7.50;;;;;;;-0.94;52.60;99607.44;6329010;27;20324;-35
2023/02/10 06:47:14;;;;;;;12.30;6.80;;;;;;;-0.71;51.88;99603.03;6331889;27;20564;-36
2023/02/10 06:50:17;;;;;;;11.40;7.00;;;;;;;-0.64;52.57;99613.81;6326100;27;20229;-36
2023/02/10 06:53:20;;;;;;;12.13;7.13;;;;;;;-0.55;52.33;99611.28;6329934;27;20256;-35
2023/02/10 06:56:22;;;;;;;9.50;5.80;;;;;;;-0.60;53.58;99613.44;6329958;27;20583;-35
2023/02/10 06:59:24;;;;;;;8.77;5.80;;;;;;;-0.79;54.08;99616.72;6327765;28;20247;-36
2023/02/10 07:02:26;;;;;;;10.87;6.70;;;;;;;-0.86;54.51;99615.53;6330102;27;20570;-35
2023/02/10 07:05:28;;;;;;;10.60;6.33;;;;;;;-1.20;54.62;99585.13;6329658;27;20229;-36
2023/02/10 07:08:30;;;;;;;10.90;6.60;;;;;;;-0.98;54.77;99623.53;6329754;27;20576;-35
2023/02/10 07:11:33;;;;;;;10.87;6.80;;;;;;;-1.52;55.59;99558.91;6330665;27;20704;-36
2023/02/10 07:14:35;;;;;;;16.30;9.63;;;;;;;-1.02;55.63;99629.94;6324217;28;20743;-36
2023/02/10 07:17:37;;;;;;;15.73;9.90;;;;;;;-0.67;54.07;99620.16;6327715;28;20269;-36
2023/02/10 07:20:39;;;;;;;18.00;11.17;;;;;;;-0.25;52.90;99638.56;6330912;27;20228;-36
2023/02/10 07:23:41;;;;;;;18.93;11.47;;;;;;;-0.03;51.88;99632.44;6329044;27;20709;-36
2023/02/10 07:26:44;;;;;;;18.77;11.47;;;;;;;-0.15;51.84;99589.72;6332211;27;20640;-36
2023/02/10 07:29:46;;;;;;;18.63;11.37;;;;;;;0.15;51.86;99633.53;6330081;27;20609;-35
2023/02/10 07:32:49;;;;;;;17.13;11.13;;;;;;;0.18;51.83;99629.81;6329224;27;20278;-36
2023/02/10 07:35:51;;;;;;;15.40;10.50;;;;;;;0.23;51.46;99633.72;6329798;27;20233;-36
2023/02/10 07:38:53;;;;;;;18.80;11.60;;;;;;;0.17;51.76;99610.66;6326545;27;20749;-35
2023/02/10 07:41:55;;;;;;;21.27;12.63;;;;;;;0.20;50.94;99597.28;6329936;27;20232;-36
2023/02/10 07:45:06;;;;;;;22.57;13.33;;;;;;;0.56;51.46;99623.16;6334130;27;20672;-36
2023/02/10 07:48:09;;;;;;;19.17;12.57;;;;;;;0.60;51.52;99627.19;6334629;27;20575;-35
2023/02/10 07:51:12;;;;;;;18.03;11.87;;;;;;;0.65;51.01;99628.44;6331063;27;20197;-35
2023/02/10 07:54:14;;;;;;;19.80;12.50;;;;;;;0.70;50.92;99633.31;6331464;27;20234;-35
2023/02/10 07:57:16;;;;;;;24.77;14.73;;;;;;;0.79;50.43;99635.16;6319630;28;20260;-36
2023/02/10 08:00:19;;;;;;;20.50;12.97;;;;;;;0.84;50.75;99629.47;6328833;27;20209;-36
2023/02/10 08:03:21;;;;;;;23.13;13.97;;;;;;;0.94;50.89;99638.25;6326381;28;20291;-36
2023/02/10 08:06:25;;;;;;;22.43;13.53;;;;;;;0.98;50.12;99643.06;6327247;27;20724;-37
2023/02/10 08:09:27;;;;;;;20.37;13.00;;;;;;;1.14;50.49;99654.91;6330386;27;20315;-34
2023/02/10 08:12:29;;;;;;;20.57;13.17;;;;;;;1.19;49.96;99665.84;6309847;28;20230;-35
2023/02/10 08:15:32;;;;;;;23.80;14.43;;;;;;;1.24;49.80;99658.38;6328589;28;20229;-34
2023/02/10 08:18:34;;;;;;;23.30;13.60;;;;;;;1.37;49.41;99658.13;6323543;28;20235;-34
2023/02/10 08:21:36;;;;;;;23.13;14.00;;;;;;;1.41;48.73;99655.09;6327987;28;20237;-35
2023/02/10 08:24:38;;;;;;;22.37;14.13;;;;;;;1.38;49.18;99659.78;6326588;28;20230;-34
2023/02/10 08:27:40;;;;;;;23.63;13.77;;;;;;;1.34;49.11;99669.75;6326906;28;20733;-34
2023/02/10 08:30:42;;;;;;;22.83;14.33;;;;;;;1.37;48.98;99679.97;6326752;28;20688;-34
2023/02/10 08:33:46;;;;;;;22.70;13.97;;;;;;;1.25;49.28;99641.66;6308366;28;20254;-35
2023/02/10 08:36:48;;;;;;;25.10;14.73;;;;;;;1.23;49.69;99630.44;6329538;28;20653;-35
2023/02/10 08:39:50;;;;;;;24.67;14.33;;;;;;;1.53;48.54;99668.97;6312867;28;20227;-35
2023/02/10 08:42:52;;;;;;;20.63;13.43;;;;;;;1.66;48.58;99666.06;6330054;28;20262;-35
2023/02/10 08:45:56;;;;;;;22.97;13.57;;;;;;;1.72;48.33;99658.47;6330056;28;20562;-35
2023/02/10 08:49:00;;;;;;;24.10;16.07;;;;;;;1.70;49.25;99654.34;6327476;28;20702;-35
2023/02/10 08:52:03;;;;;;;23.43;14.97;;;;;;;1.88;49.30;99665.00;6330749;28;20300;-35
2023/02/10 08:55:07;;;;;;;26.43;16.50;;;;;;;1.97;48.45;99674.69;6326648;28;20237;-35
2023/02/10 08:58:09;;;;;;;25.90;14.90;;;;;;;1.92;48.69;99640.94;6325830;28;20232;-34
2023/02/10 09:01:14;;;;;;;23.93;14.53;;;;;;;2.27;48.07;99694.78;6326345;28;20716;-34
2023/02/10 09:04:16;;;;;;;25.67;15.53;;;;;;;2.38;47.75;99662.22;6323105;28;20242;-35
2023/02/10 09:07:18;;;;;;;25.57;15.73;;;;;;;2.59;47.99;99668.13;6307154;28;20740;-35
2023/02/10 09:10:20;;;;;;;24.93;15.57;;;;;;;2.84;47.05;99670.13;6327186;28;20251;-35
2023/02/10 09:13:22;;;;;;;26.97;16.47;;;;;;;2.80;46.72;99662.69;6328387;28;20716;-35
2023/02/10 09:16:25;;;;;;;24.33;16.87;;;;;;;2.83;47.08;99671.13;6327290;28;20240;-35
2023/02/10 09:19:27;;;;;;;29.40;17.87;;;;;;;2.78;47.67;99673.34;6323729;28;20226;-35
2023/02/10 09:22:29;;;;;;;26.03;16.27;;;;;;;2.95;47.21;99673.56;6327943;28;20228;-36
2023/02/10 09:25:32;;;;;;;24.63;16.03;;;;;;;3.10;46.82;99664.22;6329031;27;20229;-35
2023/02/10 09:28:34;;;;;;;25.87;17.77;;;;;;;3.35;46.87;99666.22;6332583;27;20305;-35
2023/02/10 09:31:36;;;;;;;26.47;16.50;;;;;;;3.35;46.06;99673.28;6333698;27;20706;-35
2023/02/10 09:34:39;;;;;;;27.10;17.10;;;;;;;3.41;45.95;99677.97;6333642;27;20232;-34
2023/02/10 09:37:41;;;;;;;28.33;18.13;;;;;;;3.44;45.90;99675.03;6334571;27;20318;-34
2023/02/10 09:41:22;;;;;;;26.97;17.73;;;;;;;3.51;45.99;99684.00;6333928;27;20234;-35
2023/02/10 09:44:32;;;;;;;28.93;19.43;;;;;;;3.45;45.26;99646.88;6300956;27;20362;-35
2023/02/10 09:47:43;;;;;;;27.70;18.23;;;;;;;4.59;43.81;99688.31;6331105;27;20304;-35
2023/02/10 09:51:11;;;;;;;24.43;17.17;;;;;;;6.65;39.83;99675.59;6330352;28;20225;-35
2023/02/10 09:54:16;;;;;;;25.57;17.90;;;;;;;7.97;36.26;99685.56;6329291;27;20735;-35
2023/02/10 09:57:34;;;;;;;26.83;18.90;;;;;;;8.86;34.35;99681.38;6325297;28;20239;-36
2023/02/10 10:00:44;;;;;;;30.50;18.73;;;;;;;9.01;33.13;99687.56;6329793;27;20232;-36
2023/02/10 10:04:08;;;;;;;25.30;17.13;;;;;;;9.66;31.94;99679.81;6327032;28;20305;-36
2023/02/10 10:07:35;;;;;;;23.37;15.67;;;;;;;11.13;30.67;99646.28;6331227;27;20241;-36
2023/02/10 10:10:44;;;;;;;20.43;14.70;;;;;;;12.27;28.14;99675.06;6329032;27;20250;-36
2023/02/10 10:13:46;;;;;;;19.33;14.53;;;;;;;11.69;28.63;99674.69;6328030;27;20256;-36
2023/02/10 10:17:19;;;;;;;21.70;15.17;;;;;;;11.99;28.33;99667.19;6331325;27;20335;-36
2023/02/10 10:20:55;;;;;;;21.63;15.73;;;;;;;11.88;27.98;99663.28;6312677;28;20229;-35
2023/02/10 10:24:18;;;;;;;21.10;15.27;;;;;;;12.33;27.50;99658.22;6330924;27;20248;-36
2023/02/10 10:27:47;;;;;;;19.00;14.40;;;;;;;12.50;27.04;99662.09;6331161;27;20818;-37
2023/02/10 10:31:06;;;;;;;20.80;15.77;;;;;;;12.91;26.84;99645.84;6329341;27;20242;-36
2023/02/10 10:34:07;;;;;;;20.40;15.23;;;;;;;13.64;26.01;99652.84;6329055;27;20604;-37
2023/02/10 10:37:16;;;;;;;19.50;14.70;;;;;;;13.63;26.77;99651.19;6328380;27;20632;-36
2023/02/10 10:40:27;;;;;;;21.67;15.73;;;;;;;11.41;28.36;99637.38;6329133;27;20818;-36
2023/02/10 10:43:36;;;;;;;21.43;15.03;;;;;;;10.62;29.62;99649.22;6326597;27;20599;-36
2023/02/10 10:46:41;;;;;;;17.57;13.73;;;;;;;10.89;29.09;99649.44;6330265;27;20242;-36
2023/02/10 10:49:43;;;;;;;19.87;14.00;;;;;;;10.37;29.88;99634.69;6312995;27;20229;-36
2023/02/10 10:52:51;;;;;;;21.67;14.77;;;;;;;10.65;29.86;99632.88;6329408;27;20231;-36
2023/02/10 10:55:56;;;;;;;18.77;13.83;;;;;;;10.08;30.17;99634.59;6325699;28;20249;-36
2023/02/10 10:58:58;;;;;;;17.37;12.93;;;;;;;10.24;29.63;99640.72;6329837;27;20279;-36
2023/02/10 11:02:12;;;;;;;17.87;11.93;;;;;;;10.58;29.05;99639.97;6331470;27;20225;-36
2023/02/10 11:05:15;;;;;;;19.20;13.33;;;;;;;8.93;30.22;99637.13;6330787;27;20232;-36
2023/02/10 11:08:27;;;;;;;20.43;14.73;;;;;;;7.94;32.40;99633.66;6330407;27;20228;-36
2023/02/10 11:11:36;;;;;;;20.10;14.77;;;;;;;7.13;33.94;99629.63;6330806;27;20248;-36
2023/02/10 11:14:42;;;;;;;19.30;13.50;;;;;;;7.21;33.81;99619.00;6327897;28;20317;-36
2023/02/10 11:17:47;;;;;;;15.87;12.17;;;;;;;7.03;34.60;99623.69;6332276;27;20290;-36
2023/02/10 11:21:01;;;;;;;20.70;14.13;;;;;;;6.49;35.60;99620.00;6332288;27;20717;-36
2023/02/10 11:24:16;;;;;;;17.13;12.83;;;;;;;6.30;36.07;99635.25;6312563;27;20223;-36
2023/02/10 11:27:18;;;;;;;20.53;14.00;;;;;;;6.12;37.45;99624.84;6334327;27;20589;-36
2023/02/10 11:30:27;;;;;;;21.87;14.83;;;;;;;5.73;38.04;99629.91;6334177;27;20238;-36
2023/02/10 11:33:34;;;;;;;19.87;13.87;;;;;;;5.82;37.40;99621.00;6332118;27;20254;-35
2023/02/10 11:36:39;;;;;;;17.63;12.17;;;;;;;6.18;37.15;99623.34;6324298;28;20238;-35
2023/02/10 11:39:45;;;;;;;18.23;13.47;;;;;;;6.06;37.44;99587.63;6329106;28;20234;-35
2023/02/10 11:42:49;;;;;;;16.40;12.13;;;;;;;6.42;36.95;99601.34;6330190;27;20728;-36
2023/02/10 11:45:57;;;;;;;18.37;13.20;;;;;;;6.45;36.41;99570.06;6327638;28;20259;-35
2023/02/10 11:49:09;;;;;;;17.40;12.70;;;;;;;6.76;35.57;99587.84;6325587;27;20338;-35
2023/02/10 11:52:12;;;;;;;18.13;13.13;;;;;;;6.28;36.10;99562.31;6328590;27;20233;-35
2023/02/10 11:55:15;;;;;;;16.73;12.90;;;;;;;6.50;37.00;99595.19;6329013;28;20230;-36
2023/02/10 11:59:03;;;;;;;19.90;12.93;;;;;;;6.50;36.28;99611.06;6327577;27;20736;-35
2023/02/10 12:02:28;;;;;;;21.03;13.73;;;;;;;6.22;36.13;99587.63;6326101;27;20386;-35
2023/02/10 12:06:06;;;;;;;18.13;13.23;;;;;;;6.30;36.19;99623.84;6327352;27;20220;-35
2023/02/10 12:10:00;;;;;;;17.80;11.90;;;;;;;6.00;37.57;99631.44;6329157;27;20240;-35
2023/02/10 12:13:19;;;;;;;17.37;11.70;;;;;;;6.20;36.91;99618.72;6303573;27;20958;-36
2023/02/10 12:17:01;;;;;;;19.50;13.30;;;;;;;6.26;37.39;99615.41;6325951;28;20592;-35
2023/02/10 12:20:12;;;;;;;18.37;13.13;;;;;;;6.16;37.84;99620.06;6329531;28;20246;-35
2023/02/10 12:23:28;;;;;;;20.57;12.60;;;;;;;6.28;37.55;99618.72;6326183;27;20678;-36
2023/02/10 12:26:41;;;;;;;17.67;13.00;;;;;;;6.46;36.43;99602.66;6327462;28;20253;-36
2023/02/10 12:30:05;;;;;;;18.40;13.20;;;;;;;6.28;35.87;99621.38;6323031;28;20226;-35
2023/02/10 12:33:23;;;;;;;18.00;12.57;;;;;;;6.14;36.58;99601.69;6323102;28;20232;-35
2023/02/10 12:36:36;;;;;;;19.83;12.60;;;;;;;6.25;36.67;99607.63;6309530;28;20228;-35
2023/02/10 12:39:41;;;;;;;18.87;13.80;;;;;;;5.84;37.02;99602.31;6321983;28;20238;-36
2023/02/10 12:43:11;;;;;;;18.20;11.97;;;;;;;5.85;37.65;99604.78;6333090;28;20733;-35
2023/02/10 12:46:26;;;;;;;18.83;12.73;;;;;;;5.64;38.02;99607.06;6308928;28;20581;-35
2023/02/10 12:49:53;;;;;;;20.57;13.77;;;;;;;5.63;37.73;99610.72;6322703;28;20604;-35
2023/02/10 12:53:06;;;;;;;18.17;11.30;;;;;;;5.92;37.50;99607.66;6326685;28;20319;-35
2023/02/10 12:56:26;;;;;;;17.13;12.67;;;;;;;5.82;37.72;99607.78;6324772;28;20234;-35
2023/02/10 13:00:07;;;;;;;16.37;12.27;;;;;;;5.99;37.65;99594.56;6331987;27;20638;-35
2023/02/10 13:03:18;;;;;;;19.87;13.27;;;;;;;5.64;36.95;99605.25;6318773;28;20228;-35
2023/02/10 13:06:41;;;;;;;21.70;13.83;;;;;;;5.63;37.30;99598.31;6330891;27;20233;-35
2023/02/10 13:09:53;;;;;;;17.60;13.00;;;;;;;5.50;37.16;99607.69;6334035;27;20234;-36
2023/02/10 13:13:05;;;;;;;18.17;12.47;;;;;;;5.69;36.50;99605.59;6331755;27;20725;-35
2023/02/10 13:16:18;;;;;;;16.63;11.57;;;;;;;5.51;36.67;99551.19;6329410;27;20273;-35
2023/02/10 13:19:26;;;;;;;18.53;12.03;;;;;;;5.92;36.33;99600.53;6307850;28;20235;-35
2023/02/10 13:22:30;;;;;;;18.23;12.47;;;;;;;5.76;36.25;99595.19;6332114;27;20227;-35
2023/02/10 13:25:53;;;;;;;19.77;12.60;;;;;;;5.37;36.25;99589.69;6332703;27;20594;-35
2023/02/10 13:29:37;;;;;;;17.17;11.47;;;;;;;5.41;36.62;99598.91;6330033;27;20355;-35
2023/02/10 13:32:50;;;;;;;18.43;11.47;;;;;;;5.44;36.47;99585.38;6331657;27;20222;-36
2023/02/10 13:35:54;;;;;;;17.00;10.97;;;;;;;5.73;36.20;99595.53;6332229;27;20239;-36
2023/02/10 13:39:14;;;;;;;16.17;11.27;;;;;;;5.73;36.12;99587.59;6307166;27;20381;-35
2023/02/10 13:42:39;;;;;;;18.17;12.03;;;;;;;5.80;35.50;99598.31;6330068;27;20617;-36
2023/02/10 13:45:50;;;;;;;15.87;11.57;;;;;;;5.84;35.55;99589.91;6330632;27;20762;-35
2023/02/10 13:48:58;;;;;;;17.93;12.23;;;;;;;5.88;35.96;99591.22;6333077;27;20714;-35
2023/02/10 13:52:12;;;;;;;15.63;11.00;;;;;;;5.97;36.23;99593.94;6329017;27;20219;-35
2023/02/10 13:55:14;;;;;;;14.63;10.87;;;;;;;5.94;35.90;99595.06;6331845;27;20229;-35
2023/02/10 13:58:28;;;;;;;15.47;11.37;;;;;;;5.71;36.45;99594.84;6329700;28;20232;-35
2023/02/10 14:01:42;;;;;;;17.80;10.67;;;;;;;5.21;36.51;99557.91;6331165;28;20734;-35
2023/02/10 14:04:47;;;;;;;17.13;11.63;;;;;;;5.23;35.68;99603.50;6331769;27;20235;-35
2023/02/10 14:07:51;;;;;;;18.57;11.50;;;;;;;4.87;36.25;99606.31;6328521;27;20244;-35
2023/02/10 14:10:59;;;;;;;15.93;10.73;;;;;;;4.61;36.51;99607.16;6332472;27;20241;-35
2023/02/10 14:14:15;;;;;;;19.93;11.60;;;;;;;4.64;36.64;99606.88;6332463;27;20872;-35
2023/02/10 14:17:29;;;;;;;15.10;10.97;;;;;;;4.81;36.32;99613.03;6311756;28;20672;-35
2023/02/10 14:20:37;;;;;;;16.47;10.47;;;;;;;4.60;35.92;99573.84;6332672;27;20233;-35
2023/02/10 14:23:54;;;;;;;16.77;11.50;;;;;;;4.59;36.11;99609.16;6332193;27;20370;-35
2023/02/10 14:27:00;;;;;;;15.90;10.57;;;;;;;4.17;36.29;99569.44;6331644;27;20658;-34
2023/02/10 14:30:15;;;;;;;17.20;10.53;;;;;;;4.19;36.29;99588.59;6329826;27;20275;-35
2023/02/10 14:33:34;;;;;;;14.27;9.67;;;;;;;4.43;36.77;99616.09;6326284;27;20228;-35
2023/02/10 14:36:36;;;;;;;16.70;10.03;;;;;;;4.03;36.33;99576.09;6327426;27;20786;-34